Time;durP1;ratioP1;P1;durP2;ratioP2;P2;SDS_P1;SDS_P2;PMS_P1;PMS_P2;Temp;Humidity;BMP_temperature;BMP_pressure;BME280_temperature;BME280_humidity;BME280_pressure;Samples;Min_cycle;Max_cycle;Signal;HPM_P1;HPM_P2
2023/06/19 00:00:12;;;;;;;8.87;6.00;;;21.80;80.60;;;;;;4993110;28;22020;-87
2023/06/19 00:02:39;;;;;;;7.67;6.97;;;21.90;81.40;;;;;;4993659;28;20210;-86
2023/06/19 00:05:04;;;;;;;8.37;6.20;;;22.10;81.20;;;;;;4992976;28;20437;-87
2023/06/19 00:07:30;;;;;;;8.90;6.83;;;22.10;80.90;;;;;;4996852;28;20437;-87
2023/06/19 00:09:55;;;;;;;7.77;5.83;;;22.30;80.70;;;;;;4994270;28;20570;-86
2023/06/19 00:12:21;;;;;;;8.10;6.37;;;22.40;79.40;;;;;;4993197;28;20206;-86
2023/06/19 00:14:47;;;;;;;9.13;6.30;;;;;;;;;;4996385;28;20296;-86
2023/06/19 00:17:16;;;;;;;6.57;5.63;;;;;;;;;;4996111;28;20317;-87
2023/06/19 00:19:42;;;;;;;6.63;6.00;;;22.50;79.20;;;;;;4973802;28;20434;-88
2023/06/19 00:22:08;;;;;;;10.03;6.47;;;22.50;80.00;;;;;;4978418;28;22292;-87
2023/06/19 00:24:33;;;;;;;9.67;7.00;;;22.60;80.00;;;;;;4993720;28;20446;-87
2023/06/19 00:27:02;;;;;;;8.40;6.57;;;22.70;80.00;;;;;;4980191;28;20600;-86
2023/06/19 00:29:29;;;;;;;6.93;6.13;;;22.80;79.50;;;;;;4997753;28;20195;-87
2023/06/19 00:31:55;;;;;;;9.50;6.80;;;22.80;78.90;;;;;;4994930;28;20449;-87
2023/06/19 00:34:20;;;;;;;7.13;6.40;;;22.80;79.20;;;;;;4995214;28;20994;-87
2023/06/19 00:36:46;;;;;;;10.00;6.50;;;22.90;79.70;;;;;;5003775;28;20176;-87
2023/06/19 00:39:12;;;;;;;10.07;7.20;;;22.90;78.90;;;;;;4983716;28;20190;-87
2023/06/19 00:41:39;;;;;;;10.27;6.07;;;22.90;78.70;;;;;;4991617;28;20463;-88
2023/06/19 00:44:04;;;;;;;9.53;6.23;;;23.00;79.00;;;;;;4979025;28;20187;-87
2023/06/19 00:46:31;;;;;;;8.27;6.97;;;23.10;78.60;;;;;;4982016;28;20437;-87
2023/06/19 00:48:57;;;;;;;7.97;5.97;;;23.10;78.60;;;;;;4993315;28;20911;-88
2023/06/19 00:51:23;;;;;;;6.67;5.83;;;23.10;78.20;;;;;;4995079;28;20433;-86
2023/06/19 00:53:48;;;;;;;7.80;5.83;;;23.20;78.80;;;;;;4994018;28;20491;-86
2023/06/19 00:56:15;;;;;;;6.90;6.20;;;23.20;79.20;;;;;;4997638;28;20241;-88
2023/06/19 00:58:41;;;;;;;7.07;5.83;;;23.50;75.90;;;;;;4992525;28;20187;-88
2023/06/19 01:01:06;;;;;;;6.57;4.90;;;24.20;72.70;;;;;;4983605;28;20464;-87
2023/06/19 01:03:32;;;;;;;9.47;5.70;;;24.00;71.70;;;;;;4975731;28;20215;-89
2023/06/19 01:06:00;;;;;;;8.80;6.40;;;23.80;72.00;;;;;;4974873;28;20193;-87
2023/06/19 01:08:44;;;;;;;5.27;4.77;;;24.80;73.90;;;;;;4978125;28;20489;-87
2023/06/19 01:11:10;;;;;;;7.93;6.63;;;;;;;;;;4994503;28;22170;-88
2023/06/19 01:13:50;;;;;;;7.30;4.60;;;23.10;81.10;;;;;;4971779;28;20437;-89
2023/06/19 01:16:17;;;;;;;4.53;4.07;;;23.10;81.90;;;;;;4994543;28;20436;-87
2023/06/19 01:18:43;;;;;;;6.13;4.70;;;23.00;84.20;;;;;;4989469;28;20437;-87
2023/06/19 01:21:19;;;;;;;5.37;4.10;;;22.90;85.40;;;;;;4969949;28;20471;-88
2023/06/19 01:23:45;;;;;;;7.70;4.60;;;22.80;87.10;;;;;;4991892;28;20438;-88
2023/06/19 01:26:11;;;;;;;4.77;4.03;;;22.70;89.00;;;;;;4990242;28;20463;-87
2023/06/19 01:28:42;;;;;;;6.33;4.70;;;22.60;90.10;;;;;;4983528;28;20496;-88
2023/06/19 01:31:31;;;;;;;4.70;3.70;;;22.50;90.90;;;;;;4977998;28;20438;-89
2023/06/19 01:33:58;;;;;;;4.40;3.50;;;22.50;91.50;;;;;;4968446;28;20442;-90
2023/06/19 01:36:25;;;;;;;10.13;2.97;;;22.40;92.10;;;;;;5000360;28;20435;-89
2023/06/19 01:38:51;;;;;;;3.90;3.00;;;22.50;92.70;;;;;;4996302;28;20441;-88
2023/06/19 01:41:19;;;;;;;2.73;2.53;;;22.40;93.60;;;;;;4976309;28;21782;-89
2023/06/19 01:43:45;;;;;;;4.27;2.50;;;22.40;93.80;;;;;;4994582;28;21218;-89
2023/06/19 01:46:11;;;;;;;3.47;2.37;;;22.40;94.60;;;;;;4991313;28;20438;-90
2023/06/19 01:48:38;;;;;;;2.43;2.23;;;22.40;95.50;;;;;;4995396;28;20546;-87
2023/06/19 01:51:04;;;;;;;3.37;2.10;;;22.30;96.40;;;;;;4998040;28;20277;-87
2023/06/19 01:53:34;;;;;;;2.47;2.27;;;22.20;97.30;;;;;;4980861;28;20522;-87
2023/06/19 01:56:00;;;;;;;2.13;1.83;;;22.20;98.30;;;;;;4983056;28;20206;-86
2023/06/19 01:58:25;;;;;;;2.67;2.20;;;22.00;99.50;;;;;;4992260;28;20434;-85
2023/06/19 02:00:51;;;;;;;3.10;1.60;;;22.00;99.90;;;;;;5000796;28;20453;-85
2023/06/19 02:03:16;;;;;;;1.97;1.77;;;21.90;99.90;;;;;;4999153;28;20202;-86
2023/06/19 02:05:42;;;;;;;4.10;2.17;;;21.80;99.90;;;;;;4998662;28;20182;-84
2023/06/19 02:08:08;;;;;;;2.70;1.90;;;22.20;99.90;;;;;;4998078;28;20251;-85
2023/06/19 02:10:34;;;;;;;3.17;2.17;;;21.70;99.90;;;;;;5002091;28;21038;-88
2023/06/19 02:13:00;;;;;;;2.60;1.97;;;;;;;;;;5000555;28;20210;-87
2023/06/19 02:15:25;;;;;;;3.87;2.30;;;21.80;99.90;;;;;;5001178;28;20198;-88
2023/06/19 02:17:54;;;;;;;3.10;2.30;;;21.90;99.90;;;;;;4982465;28;20442;-86
2023/06/19 02:20:20;;;;;;;2.40;1.90;;;;;;;;;;5000468;28;20195;-88
2023/06/19 02:22:46;;;;;;;2.27;1.90;;;;;;;;;;5000423;28;20516;-83
2023/06/19 02:25:12;;;;;;;1.80;1.43;;;21.80;99.90;;;;;;4992196;28;20437;-83
2023/06/19 02:27:38;;;;;;;2.10;1.90;;;;;;;;;;4999050;28;20557;-87
2023/06/19 02:30:05;;;;;;;2.00;1.80;;;21.80;99.90;;;;;;4977355;28;20275;-83
2023/06/19 02:32:30;;;;;;;3.07;2.17;;;21.80;99.90;;;;;;4996106;28;20500;-85
2023/06/19 02:34:56;;;;;;;2.80;2.03;;;21.80;99.90;;;;;;4998478;28;20476;-84
2023/06/19 02:37:22;;;;;;;2.20;1.97;;;21.90;99.90;;;;;;4998941;28;20203;-88
2023/06/19 02:39:48;;;;;;;2.80;2.23;;;;;;;;;;4996749;28;20446;-84
2023/06/19 02:42:14;;;;;;;3.87;2.73;;;21.80;99.90;;;;;;4995233;28;20246;-86
2023/06/19 02:44:40;;;;;;;3.63;2.70;;;21.70;99.90;;;;;;4994087;28;20488;-85
2023/06/19 02:47:06;;;;;;;3.83;2.73;;;21.60;99.90;;;;;;4996631;28;20437;-85
2023/06/19 02:49:31;;;;;;;2.63;2.40;;;21.60;99.90;;;;;;4978810;28;20461;-88
2023/06/19 02:51:57;;;;;;;2.60;2.40;;;21.50;99.90;;;;;;4983190;28;20875;-86
2023/06/19 02:54:23;;;;;;;2.93;2.63;;;;;;;;;;5000429;28;20183;-85
2023/06/19 02:56:49;;;;;;;3.33;2.60;;;;;;;;;;4997472;28;20628;-85
2023/06/19 02:59:15;;;;;;;2.87;2.30;;;;;;;;;;4979903;28;20518;-84
2023/06/19 03:01:40;;;;;;;2.50;2.30;;;20.80;99.90;;;;;;4994376;28;20536;-84
2023/06/19 03:04:06;;;;;;;4.50;2.10;;;;;;;;;;4997483;28;20476;-89
2023/06/19 03:06:38;;;;;;;1.40;1.30;;;20.80;99.90;;;;;;4979789;28;20231;-88
2023/06/19 03:09:05;;;;;;;1.93;1.60;;;;;;;;;;4999892;28;20461;-86
2023/06/19 03:11:30;;;;;;;2.60;2.07;;;21.00;99.90;;;;;;5006162;28;20417;-86
2023/06/19 03:13:56;;;;;;;2.63;1.70;;;;;;;;;;4985887;28;20438;-87
2023/06/19 03:16:22;;;;;;;1.53;1.43;;;20.90;99.90;;;;;;4983816;28;20214;-85
2023/06/19 03:18:48;;;;;;;2.40;1.93;;;20.90;99.90;;;;;;4979754;28;20479;-87
2023/06/19 03:21:14;;;;;;;3.00;1.83;;;20.90;99.90;;;;;;4996009;28;20605;-87
2023/06/19 03:23:43;;;;;;;3.13;1.80;;;20.90;99.90;;;;;;4974060;28;20194;-87
2023/06/19 03:26:12;;;;;;;2.40;1.63;;;20.90;99.90;;;;;;4980548;28;21351;-87
2023/06/19 03:28:38;;;;;;;1.93;1.70;;;;;;;;;;4999331;28;20541;-89
2023/06/19 03:31:03;;;;;;;2.37;1.80;;;21.00;99.90;;;;;;4999631;28;20529;-87
2023/06/19 03:33:29;;;;;;;2.53;2.00;;;21.00;99.90;;;;;;5000075;28;20464;-87
2023/06/19 03:35:55;;;;;;;2.40;1.70;;;;;;;;;;4992485;28;20257;-87
2023/06/19 03:38:21;;;;;;;3.90;2.10;;;21.10;99.90;;;;;;4971969;28;20190;-83
2023/06/19 03:40:46;;;;;;;3.40;1.90;;;21.10;99.90;;;;;;4996289;28;20457;-88
2023/06/19 03:43:12;;;;;;;3.73;2.20;;;21.20;99.90;;;;;;4996598;28;20214;-86
2023/06/19 03:45:37;;;;;;;2.93;1.87;;;21.30;99.90;;;;;;4992593;28;20589;-87
2023/06/19 03:48:03;;;;;;;4.67;2.37;;;21.50;99.90;;;;;;4983545;28;20190;-84
2023/06/19 03:50:29;;;;;;;5.33;2.00;;;21.50;99.90;;;;;;4991059;28;20197;-88
2023/06/19 03:52:54;;;;;;;3.70;2.20;;;21.50;99.90;;;;;;4984190;28;20485;-85
2023/06/19 03:55:20;;;;;;;2.90;1.97;;;;;;;;;;4998385;28;20183;-86
2023/06/19 03:57:48;;;;;;;3.87;2.33;;;21.70;99.90;;;;;;4994768;28;20242;-85
2023/06/19 04:00:14;;;;;;;4.23;2.50;;;21.70;99.90;;;;;;4994138;28;20460;-88
2023/06/19 04:02:40;;;;;;;2.40;2.00;;;21.90;99.90;;;;;;4989379;28;20994;-87
2023/06/19 04:05:06;;;;;;;4.40;2.13;;;21.80;99.90;;;;;;4990147;28;20516;-86
2023/06/19 04:07:32;;;;;;;3.33;2.10;;;21.90;99.90;;;;;;4976225;28;20187;-86
2023/06/19 04:09:58;;;;;;;7.63;2.47;;;;;;;;;;4976421;28;20491;-82
2023/06/19 04:12:24;;;;;;;2.70;2.20;;;21.80;99.90;;;;;;4978127;28;20198;-87
2023/06/19 04:14:49;;;;;;;3.40;2.20;;;21.70;99.90;;;;;;4978039;28;21064;-84
2023/06/19 04:17:15;;;;;;;2.83;2.57;;;21.60;99.90;;;;;;4980026;28;20194;-85
2023/06/19 04:19:41;;;;;;;2.37;1.93;;;21.60;99.90;;;;;;4993189;28;20190;-87
2023/06/19 04:22:06;;;;;;;3.83;2.27;;;21.60;99.90;;;;;;4980831;28;20260;-84
2023/06/19 04:24:32;;;;;;;2.60;1.87;;;;;;;;;;4993693;28;20288;-85
2023/06/19 04:26:58;;;;;;;3.20;2.30;;;21.60;99.90;;;;;;4993909;28;20241;-87
2023/06/19 04:29:24;;;;;;;3.03;1.90;;;;;;;;;;4986597;28;22258;-86
2023/06/19 04:31:50;;;;;;;2.43;1.60;;;21.80;99.90;;;;;;4996986;28;20209;-87
2023/06/19 04:34:21;;;;;;;2.83;2.23;;;21.80;99.90;;;;;;4984687;28;21056;-84
2023/06/19 04:36:48;;;;;;;2.80;2.07;;;21.80;99.90;;;;;;4991611;28;20509;-88
2023/06/19 04:39:14;;;;;;;1.83;1.37;;;21.80;99.90;;;;;;4989613;28;20464;-85
2023/06/19 04:41:41;;;;;;;2.53;1.87;;;21.80;99.90;;;;;;4981363;28;20454;-88
2023/06/19 04:44:07;;;;;;;1.77;1.47;;;21.90;99.90;;;;;;4978144;28;20433;-87
2023/06/19 04:46:33;;;;;;;5.00;1.97;;;;;;;;;;4988755;28;21742;-89
2023/06/19 04:48:59;;;;;;;2.13;1.93;;;22.30;99.90;;;;;;4994720;28;20458;-87
2023/06/19 04:51:26;;;;;;;2.33;2.03;;;;;;;;;;4980568;28;20515;-86
2023/06/19 04:53:52;;;;;;;2.40;1.70;;;;;;;;;;4997533;28;20190;-87
2023/06/19 04:56:18;;;;;;;10.80;1.70;;;;;;;;;;4988634;28;20427;-86
2023/06/19 04:58:46;;;;;;;2.10;1.90;;;22.80;99.90;;;;;;4990029;28;20449;-85
2023/06/19 05:01:15;;;;;;;2.23;2.03;;;22.70;99.90;;;;;;4968238;28;20862;-88
2023/06/19 05:03:42;;;;;;;2.40;1.90;;;22.70;99.90;;;;;;4986954;28;21302;-88
2023/06/19 05:06:08;;;;;;;2.87;2.40;;;22.90;99.90;;;;;;4979671;28;20508;-90
2023/06/19 05:08:34;;;;;;;3.83;2.20;;;23.10;99.90;;;;;;4973477;28;20527;-90
2023/06/19 05:11:00;;;;;;;5.07;2.80;;;;;;;;;;4992767;28;20444;-89
2023/06/19 05:13:25;;;;;;;2.30;1.83;;;23.20;99.90;;;;;;4994737;28;20714;-90
2023/06/19 05:15:51;;;;;;;3.00;1.90;;;;;;;;;;4975696;28;20479;-88
2023/06/19 05:18:17;;;;;;;2.60;2.10;;;23.40;99.90;;;;;;4971417;28;20194;-89
2023/06/19 05:20:44;;;;;;;2.50;1.57;;;;;;;;;;4989385;28;20453;-90
2023/06/19 05:23:10;;;;;;;2.70;2.03;;;;;;;;;;4970418;28;20496;-89
2023/06/19 05:25:36;;;;;;;3.07;1.90;;;;;;;;;;4990464;28;20527;-88
2023/06/19 05:28:02;;;;;;;2.83;2.13;;;;;;;;;;4989331;28;22112;-90
2023/06/19 05:30:27;;;;;;;3.20;2.13;;;;;;;;;;4988562;28;20515;-90
2023/06/19 05:32:53;;;;;;;3.37;2.37;;;;;;;;;;4979029;28;20482;-89
2023/06/19 05:35:19;;;;;;;6.67;2.63;;;;;;;;;;4993591;28;20512;-90
2023/06/19 05:37:45;;;;;;;4.10;2.60;;;;;;;;;;4976573;28;20915;-90
2023/06/19 05:40:11;;;;;;;3.23;2.03;;;25.00;99.90;;;;;;4974956;28;20442;-91
2023/06/19 05:42:37;;;;;;;3.43;1.70;;;;;;;;;;4976018;28;20457;-91
2023/06/19 05:45:04;;;;;;;4.67;2.23;;;25.50;99.90;;;;;;4974962;28;20444;-90
2023/06/19 05:47:30;;;;;;;2.53;1.90;;;25.60;99.90;;;;;;4995975;28;20457;-90
2023/06/19 05:49:57;;;;;;;1.83;1.67;;;26.00;99.90;;;;;;4993990;28;20836;-89
2023/06/19 05:52:23;;;;;;;3.73;2.57;;;26.00;99.90;;;;;;4978436;28;20461;-89
2023/06/19 05:54:48;;;;;;;2.50;1.73;;;26.20;99.90;;;;;;4968839;28;20614;-89
2023/06/19 05:57:16;;;;;;;3.03;1.80;;;26.40;99.90;;;;;;4988258;28;20965;-90
2023/06/19 05:59:41;;;;;;;2.97;2.67;;;26.50;99.90;;;;;;4978136;28;20289;-90
2023/06/19 06:02:07;;;;;;;2.10;1.90;;;26.70;99.90;;;;;;4993540;28;20615;-90
2023/06/19 06:04:34;;;;;;;3.47;2.33;;;;;;;;;;4982627;28;20183;-91
2023/06/19 06:07:00;;;;;;;3.53;2.83;;;;;;;;;;4974731;28;20451;-89
2023/06/19 06:09:27;;;;;;;4.30;2.63;;;;;;;;;;4975975;28;20467;-91
2023/06/19 06:11:53;;;;;;;4.23;2.27;;;;;;;;;;4975658;28;20488;-88
2023/06/19 06:14:19;;;;;;;2.83;2.53;;;30.50;90.70;;;;;;4979270;28;20424;-88
2023/06/19 06:16:44;;;;;;;2.70;2.50;;;29.90;90.60;;;;;;4981257;28;23476;-90
2023/06/19 06:19:10;;;;;;;2.87;2.50;;;29.90;90.80;;;;;;4982198;28;20186;-90
2023/06/19 06:21:36;;;;;;;3.23;2.30;;;;;;;;;;4977531;28;20225;-91
2023/06/19 06:24:02;;;;;;;3.10;2.83;;;30.10;90.30;;;;;;4975363;28;20188;-90
2023/06/19 06:26:28;;;;;;;4.13;2.43;;;33.30;83.10;;;;;;4975137;28;20504;-91
2023/06/19 06:28:55;;;;;;;2.70;2.50;;;;;;;;;;4978070;28;20459;-90
2023/06/19 06:31:22;;;;;;;3.40;3.20;;;38.20;60.30;;;;;;4975513;28;20206;-90
2023/06/19 06:33:48;;;;;;;4.57;4.10;;;;;;;;;;4993254;28;20436;-90
2023/06/19 06:36:17;;;;;;;4.40;4.10;;;40.30;51.80;;;;;;4993142;28;20493;-89
2023/06/19 06:38:43;;;;;;;5.77;5.33;;;;;;;;;;4978684;28;20435;-90
2023/06/19 06:41:09;;;;;;;5.60;5.20;;;;;;;;;;4979672;28;20436;-91
2023/06/19 06:43:35;;;;;;;6.67;6.27;;;;;;;;;;4983682;28;20445;-90
2023/06/19 06:46:01;;;;;;;6.73;6.33;;;;;;;;;;4978204;28;20438;-90
2023/06/19 06:48:27;;;;;;;6.00;5.70;;;;;;;;;;4973544;28;20592;-91
2023/06/19 06:50:59;;;;;;;7.13;5.60;;;;;;;;;;4976529;28;20452;-88
2023/06/19 06:53:25;;;;;;;6.43;6.03;;;41.80;43.30;;;;;;5008971;23;20491;-86
2023/06/19 06:55:52;;;;;;;6.50;6.10;;;;;;;;;;5009504;28;20441;-86
2023/06/19 06:58:18;;;;;;;5.83;5.43;;;;;;;;;;4999982;28;20429;-85
2023/06/19 07:00:45;;;;;;;6.07;5.67;;;;;;;;;;4993069;28;21104;-86
2023/06/19 07:03:11;;;;;;;6.10;5.60;;;;;;;;;;4989756;28;20455;-87
2023/06/19 07:05:36;;;;;;;5.17;4.73;;;;;;;;;;4992359;28;20437;-87
2023/06/19 07:08:03;;;;;;;5.90;5.50;;;;;;;;;;5011357;28;20435;-86
2023/06/19 07:10:29;;;;;;;7.13;5.87;;;36.10;47.10;;;;;;4990705;28;20544;-87
2023/06/19 07:12:55;;;;;;;6.17;5.70;;;;;;;;;;4993115;28;20438;-86
2023/06/19 07:15:21;;;;;;;6.60;6.13;;;;;;;;;;4989685;28;20474;-86
2023/06/19 07:17:47;;;;;;;6.07;5.57;;;35.70;50.30;;;;;;4992300;28;20530;-86
2023/06/19 07:20:13;;;;;;;4.70;4.47;;;;;;;;;;5009666;28;20475;-87
2023/06/19 07:22:39;;;;;;;5.90;5.50;;;;;;;;;;4990711;28;20179;-86
2023/06/19 07:25:05;;;;;;;10.00;5.90;;;37.60;49.70;;;;;;4997050;28;20464;-86
2023/06/19 07:27:31;;;;;;;7.10;6.60;;;;;;;;;;5007229;28;20472;-86
2023/06/19 07:29:57;;;;;;;7.00;6.47;;;;;;;;;;5009576;28;20472;-87
2023/06/19 07:32:23;;;;;;;7.27;6.80;;;;;;;;;;5002983;28;20814;-87
2023/06/19 07:34:49;;;;;;;8.23;7.63;;;;;;;;;;5003811;28;20441;-87
2023/06/19 07:37:17;;;;;;;7.27;6.87;;;;;;;;;;5012205;28;20439;-87
2023/06/19 07:39:50;;;;;;;7.57;7.07;;;41.60;41.20;;;;;;5008175;28;20552;-87
2023/06/19 07:42:17;;;;;;;7.63;7.13;;;;;;;;;;5005352;28;20452;-86
2023/06/19 07:44:43;;;;;;;10.63;7.23;;;;;;;;;;5002041;28;21016;-87
2023/06/19 07:47:09;;;;;;;6.80;6.40;;;;;;;;;;5001525;28;20456;-86
2023/06/19 07:49:36;;;;;;;7.50;7.00;;;35.90;45.20;;;;;;4979115;28;20520;-86
2023/06/19 07:52:02;;;;;;;6.50;6.10;;;33.50;49.40;;;;;;4997927;28;20461;-86
2023/06/19 07:54:28;;;;;;;6.07;5.70;;;32.30;52.10;;;;;;4978449;28;20441;-86
2023/06/19 07:56:53;;;;;;;5.63;5.17;;;32.50;55.00;;;;;;4980552;28;20453;-86
2023/06/19 07:59:19;;;;;;;5.30;4.90;;;32.00;55.80;;;;;;4988046;28;20208;-87
2023/06/19 08:01:45;;;;;;;4.93;4.63;;;32.30;55.60;;;;;;4983919;28;20283;-86
2023/06/19 08:04:11;;;;;;;5.50;5.10;;;32.20;55.20;;;;;;4987346;28;21030;-86
2023/06/19 08:06:36;;;;;;;4.50;4.20;;;31.20;56.00;;;;;;4997001;28;21001;-86
2023/06/19 08:09:03;;;;;;;4.50;4.10;;;31.40;56.70;;;;;;4983531;28;20241;-85
2023/06/19 08:11:29;;;;;;;4.07;3.73;;;30.20;57.10;;;;;;4998726;28;20174;-85
2023/06/19 08:13:54;;;;;;;4.03;3.73;;;30.00;59.80;;;;;;4998117;28;20433;-86
2023/06/19 08:16:20;;;;;;;4.10;3.80;;;30.40;61.20;;;;;;4981543;28;20785;-87
2023/06/19 08:18:46;;;;;;;3.77;3.40;;;29.90;60.80;;;;;;4993994;28;20361;-86
2023/06/19 08:21:13;;;;;;;5.03;3.83;;;32.20;61.20;;;;;;4999964;28;20202;-87
2023/06/19 08:23:40;;;;;;;3.90;3.60;;;;;;;;;;4997025;28;20454;-86
2023/06/19 08:26:07;;;;;;;4.10;3.70;;;32.10;55.40;;;;;;4977316;28;20448;-85
2023/06/19 08:28:33;;;;;;;7.43;4.27;;;33.00;57.90;;;;;;4994734;28;20443;-86
2023/06/19 08:30:59;;;;;;;3.57;3.27;;;31.70;58.10;;;;;;4997877;28;20486;-86
2023/06/19 08:33:24;;;;;;;4.13;3.83;;;32.00;58.20;;;;;;4994389;28;20190;-85
2023/06/19 08:35:50;;;;;;;3.77;3.40;;;;;;;;;;4979599;28;20190;-86
2023/06/19 08:38:16;;;;;;;5.90;4.60;;;;;;;;;;4979719;28;20190;-86
2023/06/19 08:40:43;;;;;;;5.20;4.70;;;33.50;56.90;;;;;;4997193;28;20888;-85
2023/06/19 08:43:09;;;;;;;5.20;4.40;;;30.70;59.00;;;;;;5000023;28;20454;-86
2023/06/19 08:45:35;;;;;;;3.87;3.37;;;29.90;66.10;;;;;;4981168;28;20810;-86
2023/06/19 08:48:03;;;;;;;3.97;3.67;;;30.00;65.30;;;;;;4997897;28;20556;-86
2023/06/19 08:50:30;;;;;;;3.70;3.40;;;30.00;66.10;;;;;;4995369;28;20325;-85
2023/06/19 08:52:55;;;;;;;3.87;3.57;;;30.30;68.20;;;;;;5002197;28;20460;-85
2023/06/19 08:55:21;;;;;;;7.00;4.00;;;30.60;65.20;;;;;;4991604;28;20442;-86
2023/06/19 08:57:49;;;;;;;3.50;3.20;;;30.20;64.00;;;;;;4979986;28;20191;-85
2023/06/19 09:00:26;;;;;;;6.53;3.60;;;30.20;64.70;;;;;;4997323;28;20206;-85
2023/06/19 09:02:52;;;;;;;4.33;3.90;;;31.10;66.70;;;;;;5000858;28;20448;-85
2023/06/19 09:05:19;;;;;;;3.87;3.57;;;31.40;62.60;;;;;;4983989;28;20509;-85
2023/06/19 09:07:57;;;;;;;3.50;3.20;;;29.00;63.90;;;;;;4980462;28;21160;-85
2023/06/19 09:10:23;;;;;;;6.07;3.40;;;29.10;66.00;;;;;;4979918;28;20830;-86
2023/06/19 09:12:58;;;;;;;3.60;3.30;;;28.50;69.30;;;;;;4998442;28;20452;-86
2023/06/19 09:15:26;;;;;;;4.67;3.83;;;29.60;69.50;;;;;;4979143;28;21136;-86
2023/06/19 09:18:05;;;;;;;8.03;4.00;;;29.00;68.20;;;;;;4981774;28;21346;-85
2023/06/19 09:20:31;;;;;;;3.97;3.20;;;29.00;68.90;;;;;;4990661;28;20554;-86
2023/06/19 09:22:59;;;;;;;3.23;2.93;;;29.40;71.80;;;;;;4984132;28;20449;-85
2023/06/19 09:25:26;;;;;;;3.83;3.37;;;29.00;69.30;;;;;;4996618;28;20437;-86
2023/06/19 09:27:54;;;;;;;3.47;3.20;;;28.60;70.50;;;;;;4995195;28;21064;-86
2023/06/19 09:30:19;;;;;;;4.27;3.73;;;29.10;73.50;;;;;;4999221;28;20816;-85
2023/06/19 09:32:45;;;;;;;4.00;3.63;;;29.20;71.50;;;;;;4980362;28;20521;-85
2023/06/19 09:35:11;;;;;;;4.53;4.23;;;;;;;;;;4996792;28;20187;-85
2023/06/19 09:37:39;;;;;;;4.57;4.23;;;30.90;68.70;;;;;;4998293;28;20535;-85
2023/06/19 09:40:10;;;;;;;4.17;3.70;;;30.70;66.40;;;;;;4973618;28;20462;-86
2023/06/19 09:42:37;;;;;;;4.40;4.00;;;30.70;67.30;;;;;;4993300;28;20534;-86
2023/06/19 09:45:14;;;;;;;4.90;4.40;;;31.90;64.80;;;;;;4996357;28;20439;-85
2023/06/19 09:47:44;;;;;;;4.53;3.97;;;30.80;65.00;;;;;;4987414;28;20507;-85
2023/06/19 09:50:13;;;;;;;4.80;4.30;;;28.50;70.60;;;;;;5000799;28;20749;-86
2023/06/19 09:52:40;;;;;;;3.97;3.63;;;28.10;78.20;;;;;;4951855;28;1010208;-85
2023/06/19 09:55:08;;;;;;;4.67;4.27;;;28.10;81.40;;;;;;4999134;28;20193;-85
2023/06/19 09:57:34;;;;;;;4.60;3.90;;;28.60;81.80;;;;;;4988821;28;20470;-85
2023/06/19 10:00:11;;;;;;;4.77;4.30;;;28.70;79.60;;;;;;4998353;28;20493;-85
2023/06/19 10:02:38;;;;;;;6.53;4.07;;;29.10;82.20;;;;;;4996078;28;20468;-85
2023/06/19 10:05:08;;;;;;;5.30;4.80;;;29.90;78.40;;;;;;4995123;28;20492;-85
2023/06/19 10:07:35;;;;;;;6.43;4.40;;;29.20;79.20;;;;;;4979335;28;20450;-86
2023/06/19 10:10:12;;;;;;;6.97;4.30;;;28.70;83.30;;;;;;4981156;28;20476;-85
2023/06/19 10:12:43;;;;;;;6.27;4.17;;;28.80;82.60;;;;;;4990825;28;20434;-84
2023/06/19 10:15:19;;;;;;;8.30;4.93;;;30.00;80.80;;;;;;5005160;28;20537;-85
2023/06/19 10:17:49;;;;;;;9.60;5.10;;;30.50;80.50;;;;;;4985313;28;20976;-86
2023/06/19 10:20:31;;;;;;;5.77;5.13;;;31.00;78.20;;;;;;5000071;28;20463;-86
2023/06/19 10:23:03;;;;;;;6.20;4.50;;;31.30;73.50;;;;;;4999131;28;20460;-85
2023/06/19 10:25:31;;;;;;;6.73;5.57;;;31.30;74.00;;;;;;5000176;28;20589;-86
2023/06/19 10:27:57;;;;;;;4.67;4.23;;;29.70;75.20;;;;;;4998931;28;20742;-85
2023/06/19 10:30:23;;;;;;;5.27;4.47;;;28.70;83.00;;;;;;4981989;28;20553;-85
2023/06/19 10:32:49;;;;;;;5.07;4.57;;;29.70;82.00;;;;;;5000318;28;20906;-85
2023/06/19 10:35:16;;;;;;;5.37;4.87;;;29.80;83.70;;;;;;4997615;28;20536;-86
2023/06/19 10:37:42;;;;;;;4.97;4.47;;;29.70;81.60;;;;;;4998388;28;20195;-86
2023/06/19 10:40:09;;;;;;;5.30;4.47;;;30.10;81.00;;;;;;4985714;28;20456;-86
2023/06/19 10:42:36;;;;;;;4.43;4.00;;;28.40;83.60;;;;;;4995296;28;20469;-86
2023/06/19 10:45:08;;;;;;;5.00;4.03;;;28.10;88.90;;;;;;4991181;28;20939;-85
2023/06/19 10:47:34;;;;;;;4.20;3.90;;;28.00;88.80;;;;;;4996222;28;20498;-86
2023/06/19 10:50:00;;;;;;;6.03;4.60;;;28.00;88.70;;;;;;4997278;28;20630;-86
2023/06/19 10:52:29;;;;;;;5.70;4.40;;;28.60;90.20;;;;;;4994160;28;20203;-86
2023/06/19 10:54:55;;;;;;;5.90;5.03;;;28.60;88.80;;;;;;4976694;28;20445;-85
2023/06/19 10:57:28;;;;;;;4.70;4.20;;;29.10;87.10;;;;;;4979166;28;20460;-85
2023/06/19 10:59:54;;;;;;;5.83;4.93;;;29.00;86.50;;;;;;4993718;28;21715;-86
2023/06/19 11:02:20;;;;;;;3.70;3.40;;;29.50;85.70;;;;;;4994053;28;20509;-86
2023/06/19 11:04:46;;;;;;;4.60;4.07;;;28.80;86.20;;;;;;4994219;28;20240;-86
2023/06/19 11:07:12;;;;;;;6.07;4.83;;;29.30;86.70;;;;;;4995257;28;20446;-85
2023/06/19 11:09:37;;;;;;;5.80;4.10;;;29.50;85.50;;;;;;4996917;28;20216;-85
2023/06/19 11:12:06;;;;;;;5.60;5.10;;;29.40;84.70;;;;;;4996280;28;20534;-85
2023/06/19 11:14:31;;;;;;;4.77;4.37;;;29.50;83.80;;;;;;4983087;28;20181;-86
2023/06/19 11:16:57;;;;;;;4.90;4.47;;;28.30;87.40;;;;;;4982203;28;20439;-85
2023/06/19 11:19:23;;;;;;;3.77;3.30;;;28.30;88.20;;;;;;4978843;28;20244;-85
2023/06/19 11:21:52;;;;;;;5.30;4.80;;;28.10;88.20;;;;;;4980698;28;20184;-85
2023/06/19 11:24:19;;;;;;;4.07;3.67;;;28.60;88.70;;;;;;4980779;28;20202;-85
2023/06/19 11:26:49;;;;;;;4.80;4.30;;;28.80;87.80;;;;;;4994104;28;20469;-85
2023/06/19 11:29:20;;;;;;;5.90;3.60;;;28.00;87.70;;;;;;4983751;28;20485;-85
2023/06/19 11:31:47;;;;;;;4.10;3.70;;;28.00;90.00;;;;;;4981315;28;21610;-85
2023/06/19 11:34:13;;;;;;;4.90;3.83;;;28.40;89.40;;;;;;4986604;28;20438;-85
2023/06/19 11:36:40;;;;;;;4.67;4.20;;;28.00;90.40;;;;;;4995616;28;20438;-85
2023/06/19 11:39:13;;;;;;;4.57;3.80;;;28.70;88.80;;;;;;4996788;28;20466;-85
2023/06/19 11:41:38;;;;;;;4.23;3.53;;;29.10;88.40;;;;;;4997211;28;20441;-85
2023/06/19 11:44:06;;;;;;;4.30;3.70;;;29.10;84.50;;;;;;4997586;28;20513;-86
2023/06/19 11:46:33;;;;;;;4.20;3.80;;;29.40;82.80;;;;;;4995454;28;20257;-84
2023/06/19 11:49:17;;;;;;;5.10;4.53;;;29.40;82.50;;;;;;4985361;28;21183;-85
2023/06/19 11:51:43;;;;;;;5.10;4.63;;;28.60;83.90;;;;;;4980476;28;20830;-85
2023/06/19 11:54:10;;;;;;;4.33;3.60;;;28.30;87.00;;;;;;4993384;28;20994;-86
2023/06/19 11:56:36;;;;;;;4.20;3.73;;;28.80;85.80;;;;;;4992341;28;20263;-86
2023/06/19 11:59:03;;;;;;;4.90;4.40;;;28.80;86.60;;;;;;4991803;28;20518;-86
2023/06/19 12:01:30;;;;;;;5.20;4.10;;;29.40;86.60;;;;;;4991863;28;20476;-86
2023/06/19 12:03:55;;;;;;;4.20;3.80;;;29.20;85.10;;;;;;4992977;28;20526;-85
2023/06/19 12:06:21;;;;;;;4.47;4.00;;;28.60;84.90;;;;;;4993356;28;21099;-85
2023/06/19 12:08:46;;;;;;;4.27;3.87;;;29.10;83.60;;;;;;4991919;28;20210;-86
2023/06/19 12:11:13;;;;;;;4.77;4.27;;;29.20;85.00;;;;;;4992393;28;20272;-85
2023/06/19 12:13:41;;;;;;;4.33;3.50;;;29.30;86.20;;;;;;4992966;28;20741;-86
2023/06/19 12:16:09;;;;;;;4.70;4.30;;;29.90;82.50;;;;;;4980333;28;20444;-85
2023/06/19 12:18:34;;;;;;;6.53;3.90;;;29.60;81.00;;;;;;4996617;28;20464;-86
2023/06/19 12:21:00;;;;;;;4.57;4.17;;;29.90;81.20;;;;;;4981938;28;20462;-86
2023/06/19 12:23:26;;;;;;;3.80;3.40;;;;;;;;;;4994957;28;20741;-86
2023/06/19 12:25:52;;;;;;;4.40;4.00;;;;;;;;;;4994796;28;21092;-86
2023/06/19 12:28:18;;;;;;;4.00;3.60;;;;;;;;;;4977344;28;20437;-86
2023/06/19 12:30:45;;;;;;;6.30;4.97;;;29.60;81.40;;;;;;4976057;28;20452;-86
2023/06/19 12:33:11;;;;;;;4.20;3.80;;;;;;;;;;4992937;28;20822;-85
2023/06/19 12:35:41;;;;;;;4.60;3.20;;;29.90;79.90;;;;;;4976950;28;21433;-86
2023/06/19 12:38:07;;;;;;;5.47;3.93;;;29.90;80.10;;;;;;4996433;28;20433;-85
2023/06/19 12:40:33;;;;;;;4.00;3.70;;;29.70;77.80;;;;;;4994512;28;20902;-85
2023/06/19 12:42:59;;;;;;;5.27;3.57;;;;;;;;;;4996519;28;20856;-85
2023/06/19 12:45:24;;;;;;;4.17;3.30;;;29.20;77.40;;;;;;4977205;28;20194;-86
2023/06/19 12:47:50;;;;;;;4.87;4.37;;;;;;;;;;4994885;28;20794;-85
2023/06/19 12:50:16;;;;;;;5.97;4.03;;;29.80;78.00;;;;;;4973682;28;20218;-86
2023/06/19 12:52:42;;;;;;;4.60;4.20;;;30.10;77.70;;;;;;4981184;28;20462;-85
2023/06/19 12:55:07;;;;;;;4.37;3.70;;;29.30;76.00;;;;;;4993001;28;20265;-85
2023/06/19 12:57:33;;;;;;;6.60;4.90;;;;;;;;;;4995582;28;20240;-85
2023/06/19 12:59:59;;;;;;;4.93;4.23;;;29.70;76.90;;;;;;4994154;28;20449;-86
2023/06/19 13:02:25;;;;;;;4.60;3.60;;;30.20;75.70;;;;;;4998774;28;20445;-86
2023/06/19 13:04:50;;;;;;;5.03;4.53;;;30.10;73.70;;;;;;5000590;28;20189;-85
2023/06/19 13:07:16;;;;;;;4.90;4.20;;;30.00;74.90;;;;;;4996542;28;20187;-87
2023/06/19 13:09:42;;;;;;;4.90;4.27;;;;;;;;;;5000598;28;20703;-87